Salina, Pennsylvania
Current Conditions -  °F | °C
As of 12:47 PM on Tuesday 21 Oct 2014 (Local Time) from KLBE Reporting Station
Moderate Rain Moderate Rain  
Wind Chill: 54°   Ceiling: 4000
Heat Index: 54°   Visibility: 3mi
Dew Point: 52°   Wind: 12mph
Humidity: 94%   Direction: 310°NW
Pressure: 29.9"   Gusts: 17mph
Location:  40.52°N, 79.5°W
Report Text: KLBE 211647Z 31010G15KT 3SM RA BR BN009 OVC040 12/11 A2990
Loading
Personal Weather Stations






























Interactive Weather Map
Tropical Storm Tracking
New forecast layout! Learn more

10-Day Weather Forecast

Advertisements
Track Severe Weather on mobile